Time;durP1;ratioP1;P1;durP2;ratioP2;P2;SDS_P1;SDS_P2;PMS_P1;PMS_P2;Temp;Humidity;BMP_temperature;BMP_pressure;BME280_temperature;BME280_humidity;BME280_pressure;Samples;Min_cycle;Max_cycle;Signal;HPM_P1;HPM_P2
2024/03/22 00:00:27;;;;;;;17.50;13.68;;;;;;;;;;5095906;28;20019;-72
2024/03/22 00:02:53;;;;;;;18.15;13.55;;;;;;;;;;5077304;28;20463;-73
2024/03/22 00:05:21;;;;;;;16.90;13.10;;;;;;;;;;5094146;28;20035;-72
2024/03/22 00:07:47;;;;;;;19.02;14.98;;;;;;;;;;5095320;28;20080;-72
2024/03/22 00:10:13;;;;;;;17.77;13.25;;;;;;;;;;5077724;28;20099;-71
2024/03/22 00:12:39;;;;;;;19.23;12.82;;;;;;;;;;5079907;28;20364;-73
2024/03/22 00:15:06;;;;;;;22.00;13.68;;;;;;;;;;5077158;28;20033;-72
2024/03/22 00:17:33;;;;;;;17.80;13.50;;;;;;;;;;5089272;28;20028;-73
2024/03/22 00:19:59;;;;;;;20.33;15.02;;;;;;;;;;5077885;28;20367;-73
2024/03/22 00:22:25;;;;;;;21.27;14.38;;;;;;;;;;5077101;28;20028;-72
2024/03/22 00:24:51;;;;;;;20.05;14.43;;;;;;;;;;5068603;28;20036;-72
2024/03/22 00:27:17;;;;;;;19.15;14.00;;;;;;;;;;5076570;28;20482;-73
2024/03/22 00:29:43;;;;;;;26.45;16.50;;;;;;;;;;5064412;28;20036;-73
2024/03/22 00:32:10;;;;;;;18.67;15.43;;;;;;;;;;5097944;28;20049;-74
2024/03/22 00:34:36;;;;;;;18.98;14.35;;;;;;;;;;5090075;28;20051;-73
2024/03/22 00:37:02;;;;;;;20.05;15.18;;;;;;;;;;5091674;28;20047;-74
2024/03/22 00:39:28;;;;;;;18.13;14.77;;;;;;;;;;5075900;28;20390;-72
2024/03/22 00:41:54;;;;;;;16.95;13.82;;;;;;;;;;5073992;28;20474;-73
2024/03/22 00:44:20;;;;;;;21.23;15.35;;;;;;;;;;5086554;28;20027;-73
2024/03/22 00:46:46;;;;;;;17.35;14.25;;;;;;;;;;5085989;28;20351;-73
2024/03/22 00:49:12;;;;;;;26.02;15.55;;;;;;;;;;5066218;28;20164;-72
2024/03/22 00:51:39;;;;;;;22.85;16.15;;;;;;;;;;5081038;28;20431;-71
2024/03/22 00:54:05;;;;;;;20.60;16.25;;;;;;;;;;5075630;28;20081;-74
2024/03/22 00:56:31;;;;;;;25.00;16.65;;;;;;;;;;5081152;28;20032;-74
2024/03/22 00:58:57;;;;;;;19.65;15.73;;;;;;;;;;5076314;28;20035;-72
2024/03/22 01:01:23;;;;;;;26.33;18.65;;;;;;;;;;5082025;28;20028;-73
2024/03/22 01:03:49;;;;;;;22.92;17.00;;;;;;;;;;5089210;28;20363;-73
2024/03/22 01:06:15;;;;;;;22.92;16.35;;;;;;;;;;5090130;28;20024;-72
2024/03/22 01:08:41;;;;;;;27.35;17.02;;;;;;;;;;5076825;28;20367;-73
2024/03/22 01:11:07;;;;;;;25.42;19.20;;;;;;;;;;5077843;28;20115;-72
2024/03/22 01:13:33;;;;;;;26.00;16.40;;;;;;;;;;5087900;28;20115;-72
2024/03/22 01:15:59;;;;;;;22.58;17.90;;;;;;;;;;5074321;28;20052;-73
2024/03/22 01:18:25;;;;;;;24.75;18.30;;;;;;;;;;5092687;28;20028;-73
2024/03/22 01:20:51;;;;;;;29.27;17.60;;;;;;;;;;5087485;28;20466;-72
2024/03/22 01:23:18;;;;;;;29.90;19.15;;;;;;;;;;5087026;28;20027;-70
2024/03/22 01:25:45;;;;;;;25.33;17.60;;;;;;;;;;5064209;28;20020;-71
2024/03/22 01:28:11;;;;;;;28.08;17.45;;;;;;;;;;5060941;28;20371;-71
2024/03/22 01:30:38;;;;;;;24.35;16.95;;;;;;;;;;5076105;28;20161;-70
2024/03/22 01:33:04;;;;;;;23.17;18.55;;;;;;;;;;5062468;28;20032;-71
2024/03/22 01:35:30;;;;;;;23.33;16.55;;;;;;;;;;5094151;28;20020;-69
2024/03/22 01:37:56;;;;;;;23.13;16.67;;;;;;;;;;5086794;28;20031;-71
2024/03/22 01:40:22;;;;;;;23.08;17.88;;;;;;;;;;5075773;28;20024;-71
2024/03/22 01:42:48;;;;;;;24.15;18.02;;;;;;;;;;5070765;28;20024;-71
2024/03/22 01:45:15;;;;;;;30.05;18.27;;;;;;;;;;5085811;28;20020;-71
2024/03/22 01:47:41;;;;;;;21.20;16.63;;;;;;;;;;5080898;28;20059;-71
2024/03/22 01:50:08;;;;;;;22.90;16.73;;;;;;;;;;5093754;28;20146;-71
2024/03/22 01:52:34;;;;;;;23.40;17.10;;;;;;;;;;5088905;28;20043;-72
2024/03/22 01:55:00;;;;;;;22.83;15.98;;;;;;;;;;5082235;28;20158;-72
2024/03/22 01:57:27;;;;;;;19.35;16.77;;;;;;;;;;5073837;28;20391;-71
2024/03/22 01:59:54;;;;;;;21.77;16.60;;;;;;;;;;5073087;28;20154;-72
2024/03/22 02:02:20;;;;;;;26.02;17.15;;;;;;;;;;5072481;28;20074;-72
2024/03/22 02:04:46;;;;;;;22.85;16.77;;;;;;;;;;5088392;28;20084;-73
2024/03/22 02:07:12;;;;;;;21.00;16.00;;;;;;;;;;5080621;28;20476;-71
2024/03/22 02:09:39;;;;;;;24.98;16.15;;;;;;;;;;5089670;28;20024;-70
2024/03/22 02:12:05;;;;;;;23.50;16.23;;;;;;;;;;5093148;28;20332;-71
2024/03/22 02:14:31;;;;;;;22.92;15.77;;;;;;;;;;5078590;28;20137;-70
2024/03/22 02:16:57;;;;;;;21.42;16.15;;;;;;;;;;5088388;28;20069;-72
2024/03/22 02:19:23;;;;;;;23.75;15.35;;;;;;;;;;5075920;28;20028;-72
2024/03/22 02:21:49;;;;;;;23.13;17.58;;;;;;;;;;5079595;28;20028;-71
2024/03/22 02:24:15;;;;;;;22.65;15.52;;;;;;;;;;5075967;28;20028;-72
2024/03/22 02:26:41;;;;;;;21.67;16.52;;;;;;;;;;5079313;28;20027;-70
2024/03/22 02:29:07;;;;;;;21.88;16.33;;;;;;;;;;5070861;28;20121;-71
2024/03/22 02:31:33;;;;;;;24.38;15.27;;;;;;;;;;5078067;28;20424;-73
2024/03/22 02:33:59;;;;;;;30.25;16.27;;;;;;;;;;5075604;28;20032;-72
2024/03/22 02:36:26;;;;;;;26.10;15.20;;;;;;;;;;5089684;28;20024;-72
2024/03/22 02:38:52;;;;;;;21.35;15.63;;;;;;;;;;5097369;28;20031;-72
2024/03/22 02:41:18;;;;;;;22.00;15.80;;;;;;;;;;5080961;28;20072;-72
2024/03/22 02:43:44;;;;;;;22.10;16.13;;;;;;;;;;5081649;28;20411;-72
2024/03/22 02:46:10;;;;;;;22.58;16.65;;;;;;;;;;5075691;28;20032;-73
2024/03/22 02:48:36;;;;;;;24.60;15.25;;;;;;;;;;5076366;28;20067;-70
2024/03/22 02:51:02;;;;;;;24.40;16.48;;;;;;;;;;5072873;28;20158;-71
2024/03/22 02:53:29;;;;;;;22.98;16.23;;;;;;;;;;5072854;28;20408;-72
2024/03/22 02:55:55;;;;;;;23.27;17.25;;;;;;;;;;5073733;28;20028;-72
2024/03/22 02:58:22;;;;;;;25.42;17.08;;;;;;;;;;5084231;28;20037;-74
2024/03/22 03:00:48;;;;;;;27.92;17.02;;;;;;;;;;5087332;28;20449;-73
2024/03/22 03:03:14;;;;;;;21.27;15.63;;;;;;;;;;5078009;28;20043;-74
2024/03/22 03:05:41;;;;;;;23.00;17.10;;;;;;;;;;5056186;28;20142;-73
2024/03/22 03:08:07;;;;;;;23.95;17.08;;;;;;;;;;5092359;28;20024;-73
2024/03/22 03:10:33;;;;;;;22.33;15.15;;;;;;;;;;5074283;28;20026;-72
2024/03/22 03:12:59;;;;;;;19.42;14.88;;;;;;;;;;5073139;28;20028;-72
2024/03/22 03:15:25;;;;;;;19.90;14.77;;;;;;;;;;5074168;28;20025;-71
2024/03/22 03:17:51;;;;;;;24.10;15.68;;;;;;;;;;5087622;28;20497;-72
2024/03/22 03:20:17;;;;;;;20.75;15.73;;;;;;;;;;5058411;28;20032;-71
2024/03/22 03:22:43;;;;;;;25.55;16.13;;;;;;;;;;5077634;28;20364;-71
2024/03/22 03:25:10;;;;;;;21.60;15.90;;;;;;;;;;5093940;28;20501;-72
2024/03/22 03:27:36;;;;;;;26.20;16.73;;;;;;;;;;5089387;28;20021;-72
2024/03/22 03:30:02;;;;;;;25.85;17.40;;;;;;;;;;5096042;28;20085;-70
2024/03/22 03:32:28;;;;;;;24.33;16.38;;;;;;;;;;5095374;28;20362;-71
2024/03/22 03:34:54;;;;;;;24.58;16.85;;;;;;;;;;5077134;28;20130;-71
2024/03/22 03:37:20;;;;;;;28.65;17.73;;;;;;;;;;5094157;28;20032;-72
2024/03/22 03:39:46;;;;;;;23.45;16.50;;;;;;;;;;5095377;28;20028;-71
2024/03/22 03:42:12;;;;;;;24.00;16.70;;;;;;;;;;5080025;28;20021;-72
2024/03/22 03:44:39;;;;;;;25.42;17.40;;;;;;;;;;5077704;28;20020;-71
2024/03/22 03:47:05;;;;;;;25.30;17.52;;;;;;;;;;5061930;28;20035;-71
2024/03/22 03:49:31;;;;;;;26.25;17.95;;;;;;;;;;5079535;28;20029;-72
2024/03/22 03:51:57;;;;;;;26.08;16.42;;;;;;;;;;5073540;28;20029;-73
2024/03/22 03:54:23;;;;;;;24.58;17.27;;;;;;;;;;5064346;28;20119;-71
2024/03/22 03:56:49;;;;;;;26.38;16.25;;;;;;;;;;5061259;28;20060;-71
2024/03/22 03:59:15;;;;;;;36.33;16.83;;;;;;;;;;5082180;28;20025;-72
2024/03/22 04:01:41;;;;;;;25.00;16.58;;;;;;;;;;5079988;28;20482;-72
2024/03/22 04:04:07;;;;;;;23.58;15.77;;;;;;;;;;5088574;28;20029;-72
2024/03/22 04:06:34;;;;;;;25.38;16.60;;;;;;;;;;5092118;28;20022;-71
2024/03/22 04:09:00;;;;;;;24.75;17.70;;;;;;;;;;5076949;28;20513;-73
2024/03/22 04:11:26;;;;;;;24.00;17.00;;;;;;;;;;5074936;28;20401;-72
2024/03/22 04:13:52;;;;;;;21.73;15.05;;;;;;;;;;5074000;28;20027;-70
2024/03/22 04:16:18;;;;;;;25.05;16.83;;;;;;;;;;5075623;28;20028;-72
2024/03/22 04:18:44;;;;;;;26.65;17.27;;;;;;;;;;5093592;28;20447;-72
2024/03/22 04:21:10;;;;;;;22.23;15.95;;;;;;;;;;5071645;28;20029;-72
2024/03/22 04:23:36;;;;;;;23.63;16.67;;;;;;;;;;5074899;28;20020;-72
2024/03/22 04:26:03;;;;;;;26.73;16.08;;;;;;;;;;5057594;28;20427;-71
2024/03/22 04:28:29;;;;;;;23.10;16.45;;;;;;;;;;5091101;28;20028;-71
2024/03/22 04:30:59;;;;;;;26.83;16.35;;;;;;;;;;5088451;28;20037;-72
2024/03/22 04:33:26;;;;;;;22.25;15.48;;;;;;;;;;5076047;28;20052;-74
2024/03/22 04:35:52;;;;;;;22.45;15.15;;;;;;;;;;5060738;28;20028;-73
2024/03/22 04:38:18;;;;;;;25.70;16.58;;;;;;;;;;5087685;28;20120;-74
2024/03/22 04:40:44;;;;;;;20.77;14.70;;;;;;;;;;5078194;28;20012;-73
2024/03/22 04:43:10;;;;;;;22.88;14.75;;;;;;;;;;5080553;28;20016;-73
2024/03/22 04:45:36;;;;;;;19.52;15.75;;;;;;;;;;5095738;28;20031;-74
2024/03/22 04:48:03;;;;;;;21.20;15.23;;;;;;;;;;5096753;28;20105;-73
2024/03/22 04:50:29;;;;;;;22.90;15.00;;;;;;;;;;5078089;28;20058;-72
2024/03/22 04:52:55;;;;;;;23.17;15.52;;;;;;;;;;5066230;28;20027;-72
2024/03/22 04:55:21;;;;;;;24.13;15.55;;;;;;;;;;5076372;28;20390;-73
2024/03/22 04:57:47;;;;;;;25.40;15.27;;;;;;;;;;5058982;28;20021;-71
2024/03/22 05:00:13;;;;;;;22.15;14.73;;;;;;;;;;5066772;28;20398;-73
2024/03/22 05:02:40;;;;;;;25.65;15.73;;;;;;;;;;5100497;28;20024;-72
2024/03/22 05:05:07;;;;;;;20.90;15.07;;;;;;;;;;5084356;28;20017;-72
2024/03/22 05:07:33;;;;;;;19.67;13.88;;;;;;;;;;5085826;28;20103;-72
2024/03/22 05:10:03;;;;;;;21.42;14.95;;;;;;;;;;5096431;28;20045;-72
2024/03/22 05:12:29;;;;;;;23.15;15.60;;;;;;;;;;5095877;28;20032;-72
2024/03/22 05:14:55;;;;;;;22.88;16.10;;;;;;;;;;5090573;28;20039;-73
2024/03/22 05:17:21;;;;;;;27.23;15.23;;;;;;;;;;5078845;28;20028;-72
2024/03/22 05:19:47;;;;;;;23.88;14.82;;;;;;;;;;5080868;28;20029;-72
2024/03/22 05:22:13;;;;;;;21.90;13.60;;;;;;;;;;5073241;28;20020;-71
2024/03/22 05:24:39;;;;;;;36.60;24.95;;;;;;;;;;5077770;28;20024;-72
2024/03/22 05:27:05;;;;;;;30.67;20.02;;;;;;;;;;5078128;28;20016;-73
2024/03/22 05:29:31;;;;;;;25.92;16.27;;;;;;;;;;5058586;28;20028;-72
2024/03/22 05:31:57;;;;;;;20.90;14.98;;;;;;;;;;5075148;28;20050;-72
2024/03/22 05:34:23;;;;;;;20.80;14.00;;;;;;;;;;5075296;28;20038;-73
2024/03/22 05:36:49;;;;;;;19.45;13.85;;;;;;;;;;5090350;28;20020;-72
2024/03/22 05:39:16;;;;;;;20.88;14.43;;;;;;;;;;5095054;28;20058;-72
2024/03/22 05:41:42;;;;;;;17.17;12.55;;;;;;;;;;5064890;28;20023;-71
2024/03/22 05:44:08;;;;;;;22.77;14.52;;;;;;;;;;5074953;28;20473;-73
2024/03/22 05:46:35;;;;;;;24.98;14.55;;;;;;;;;;5077626;28;20028;-71
2024/03/22 05:49:01;;;;;;;21.05;13.63;;;;;;;;;;5078714;28;20491;-70
2024/03/22 05:51:27;;;;;;;20.77;14.45;;;;;;;;;;5068576;28;20447;-71
2024/03/22 05:53:53;;;;;;;21.83;15.05;;;;;;;;;;5078154;28;20491;-72
2024/03/22 05:56:19;;;;;;;24.63;14.60;;;;;;;;;;5080241;28;20479;-72
2024/03/22 05:58:45;;;;;;;21.08;14.07;;;;;;;;;;5084997;28;20028;-71
2024/03/22 06:01:11;;;;;;;21.75;14.48;;;;;;;;;;5077996;28;20487;-73
2024/03/22 06:03:37;;;;;;;19.38;13.73;;;;;;;;;;5061323;28;20065;-76
2024/03/22 06:06:04;;;;;;;21.90;12.95;;;;;;;;;;5069774;28;20016;-72
2024/03/22 06:08:34;;;;;;;22.80;13.70;;;;;;;;;;5057474;28;20147;-73
2024/03/22 06:11:00;;;;;;;17.80;13.45;;;;;;;;;;5062793;28;20075;-71
2024/03/22 06:13:26;;;;;;;20.88;14.23;;;;;;;;;;5064428;28;20041;-72
2024/03/22 06:15:52;;;;;;;19.88;11.77;;;;;;;;;;5064826;28;20056;-71
2024/03/22 06:18:18;;;;;;;17.52;12.52;;;;;;;;;;5073396;28;20047;-72
2024/03/22 06:20:44;;;;;;;17.60;12.45;;;;;;;;;;5073785;28;20056;-72
2024/03/22 06:23:10;;;;;;;21.73;13.30;;;;;;;;;;5074757;28;20359;-72
2024/03/22 06:25:37;;;;;;;19.80;12.27;;;;;;;;;;5074307;28;20059;-72
2024/03/22 06:28:03;;;;;;;21.17;13.52;;;;;;;;;;5076486;28;20028;-71
2024/03/22 06:30:29;;;;;;;19.92;12.52;;;;;;;;;;5071465;28;20483;-72
2024/03/22 06:32:55;;;;;;;16.38;11.82;;;;;;;;;;5082751;28;20039;-74
2024/03/22 06:35:22;;;;;;;18.65;11.63;;;;;;;;;;5064767;28;20036;-77
2024/03/22 06:37:50;;;;;;;19.92;12.25;;;;;;;;;;5061594;28;20024;-73
2024/03/22 06:40:17;;;;;;;18.67;12.15;;;;;;;;;;5067081;28;20024;-75
2024/03/22 06:42:43;;;;;;;18.20;12.05;;;;;;;;;;5071422;28;20028;-74
2024/03/22 06:45:09;;;;;;;22.23;12.32;;;;;;;;;;5073978;28;20032;-75
2024/03/22 06:47:35;;;;;;;20.95;13.15;;;;;;;;;;5073888;28;20425;-71
2024/03/22 06:50:01;;;;;;;17.58;11.27;;;;;;;;;;5088170;28;20474;-70
2024/03/22 06:52:30;;;;;;;20.10;10.85;;;;;;;;;;5075368;28;20024;-70
2024/03/22 06:54:56;;;;;;;25.55;13.60;;;;;;;;;;5076358;28;20086;-70
2024/03/22 06:57:22;;;;;;;17.55;11.20;;;;;;;;;;5079499;28;20028;-70
2024/03/22 06:59:48;;;;;;;18.27;11.05;;;;;;;;;;5082987;28;20459;-71
2024/03/22 07:02:14;;;;;;;16.58;11.20;;;;;;;;;;5104068;28;20050;-73
2024/03/22 07:04:41;;;;;;;14.88;11.15;;;;;;;;;;5103376;28;20050;-70
2024/03/22 07:07:07;;;;;;;17.13;11.95;;;;;;;;;;5075728;28;20028;-73
2024/03/22 07:09:34;;;;;;;18.50;12.70;;;;;;;;;;5061679;28;20620;-73
2024/03/22 07:12:00;;;;;;;15.93;10.85;;;;;;;;;;5081077;28;20028;-72
2024/03/22 07:14:26;;;;;;;23.40;12.45;;;;;;;;;;5079386;28;20027;-72
2024/03/22 07:16:55;;;;;;;18.70;11.77;;;;;;;;;;5083502;28;20043;-69
2024/03/22 07:19:21;;;;;;;20.02;11.00;;;;;;;;;;5081179;28;20032;-69
2024/03/22 07:21:48;;;;;;;18.08;11.43;;;;;;;;;;5062271;28;20029;-69
2024/03/22 07:24:14;;;;;;;21.70;11.38;;;;;;;;;;5062438;28;20252;-70
2024/03/22 07:26:40;;;;;;;16.63;12.00;;;;;;;;;;5053634;28;20161;-70
2024/03/22 07:29:07;;;;;;;17.60;11.30;;;;;;;;;;5073841;28;20036;-69
2024/03/22 07:31:33;;;;;;;19.75;12.43;;;;;;;;;;5054471;28;20021;-69
2024/03/22 07:33:59;;;;;;;19.52;12.20;;;;;;;;;;5072491;28;20036;-68
2024/03/22 07:36:26;;;;;;;21.95;12.05;;;;;;;;;;5054571;28;20099;-70
2024/03/22 07:38:52;;;;;;;17.83;11.50;;;;;;;;;;5055087;28;20021;-69
2024/03/22 07:41:18;;;;;;;22.40;12.63;;;;;;;;;;5072500;28;20028;-71
2024/03/22 07:43:44;;;;;;;18.73;11.88;;;;;;;;;;5072785;28;20021;-70
2024/03/22 07:46:11;;;;;;;16.17;11.07;;;;;;;;;;5073684;28;20062;-69
2024/03/22 07:48:37;;;;;;;13.20;10.73;;;;;;;;;;5077784;28;20078;-70
2024/03/22 07:51:03;;;;;;;18.88;11.52;;;;;;;;;;5076893;28;20024;-71
2024/03/22 07:53:30;;;;;;;20.88;11.90;;;;;;;;;;5075405;28;20622;-69
2024/03/22 07:55:56;;;;;;;18.20;11.55;;;;;;;;;;5057897;28;20035;-69
2024/03/22 07:58:22;;;;;;;22.73;11.18;;;;;;;;;;5074016;28;20028;-70
2024/03/22 08:00:48;;;;;;;23.83;12.90;;;;;;;;;;5075353;28;20020;-69
2024/03/22 08:03:17;;;;;;;19.23;11.40;;;;;;;;;;5084141;28;20032;-70
2024/03/22 08:05:43;;;;;;;21.95;12.43;;;;;;;;;;5073589;28;20060;-72
2024/03/22 08:08:09;;;;;;;21.88;11.20;;;;;;;;;;5073109;28;20548;-70
2024/03/22 08:10:35;;;;;;;17.92;11.52;;;;;;;;;;5058974;28;20036;-70
2024/03/22 08:13:01;;;;;;;16.33;12.15;;;;;;;;;;5058273;28;20138;-71
2024/03/22 08:15:27;;;;;;;20.92;11.38;;;;;;;;;;5060657;28;20035;-69
2024/03/22 08:17:53;;;;;;;18.75;12.18;;;;;;;;;;5084095;28;20027;-68
2024/03/22 08:20:19;;;;;;;17.88;11.45;;;;;;;;;;5090597;28;20033;-69
2024/03/22 08:22:45;;;;;;;16.95;11.52;;;;;;;;;;5083513;28;20025;-70
2024/03/22 08:25:12;;;;;;;23.02;12.63;;;;;;;;;;5079178;28;20395;-68
2024/03/22 08:27:38;;;;;;;18.60;11.13;;;;;;;;;;5075831;28;20044;-70
2024/03/22 08:30:04;;;;;;;20.23;12.40;;;;;;;;;;5070001;28;20025;-72
2024/03/22 08:32:30;;;;;;;14.48;10.77;;;;;;;;;;5077261;28;20474;-70
2024/03/22 08:34:56;;;;;;;18.38;11.98;;;;;;;;;;5063619;28;20055;-71
2024/03/22 08:37:23;;;;;;;23.27;10.90;;;;;;;;;;5060141;28;20040;-71
2024/03/22 08:39:49;;;;;;;20.38;12.00;;;;;;;;;;5075747;28;20020;-70
2024/03/22 08:42:15;;;;;;;20.88;10.85;;;;;;;;;;5070571;28;20028;-71
2024/03/22 08:44:41;;;;;;;19.38;11.20;;;;;;;;;;5078947;28;20025;-72
2024/03/22 08:47:07;;;;;;;19.05;11.30;;;;;;;;;;5089108;28;20013;-71
2024/03/22 08:49:36;;;;;;;17.65;11.30;;;;;;;;;;5090256;28;20036;-70
2024/03/22 08:52:02;;;;;;;16.77;10.40;;;;;;;;;;5078519;28;20024;-72
2024/03/22 08:54:28;;;;;;;18.13;10.68;;;;;;;;;;5080862;28;20054;-72
2024/03/22 08:56:54;;;;;;;20.70;10.10;;;;;;;;;;5083848;28;20024;-70
2024/03/22 08:59:20;;;;;;;14.73;10.00;;;;;;;;;;5066142;28;20031;-71
2024/03/22 09:01:48;;;;;;;18.10;10.20;;;;;;;;;;5058646;28;20087;-72
2024/03/22 09:04:15;;;;;;;15.90;10.45;;;;;;;;;;5069819;28;20144;-70
2024/03/22 09:06:41;;;;;;;15.30;9.73;;;;;;;;;;5058159;28;20078;-69
2024/03/22 09:09:08;;;;;;;13.45;9.77;;;;;;;;;;5077356;28;20028;-69
2024/03/22 09:11:34;;;;;;;12.90;9.55;;;;;;;;;;5092642;28;20017;-69
2024/03/22 09:14:00;;;;;;;12.35;9.60;;;;;;;;;;5080580;28;20028;-68
2024/03/22 09:16:26;;;;;;;13.13;9.93;;;;;;;;;;5066903;28;20093;-71
2024/03/22 09:18:52;;;;;;;14.50;9.00;;;;;;;;;;5080322;28;20021;-69
2024/03/22 09:21:18;;;;;;;14.23;9.57;;;;;;;;;;5074855;28;20060;-70
2024/03/22 09:23:44;;;;;;;16.15;10.02;;;;;;;;;;5057172;28;20115;-69
2024/03/22 09:26:10;;;;;;;13.98;9.55;;;;;;;;;;5057771;28;20058;-71
2024/03/22 09:28:36;;;;;;;15.52;10.07;;;;;;;;;;5055531;28;20494;-70
2024/03/22 09:31:06;;;;;;;11.80;6.18;;;;;;;;;;5072263;28;20383;-68
2024/03/22 09:33:35;;;;;;;11.55;6.82;;;;;;;;;;5054302;28;20504;-67
2024/03/22 09:36:01;;;;;;;9.57;7.47;;;;;;;;;;5072654;28;20074;-70
2024/03/22 09:38:28;;;;;;;10.82;7.97;;;;;;;;;;5054316;28;20494;-70
2024/03/22 09:40:54;;;;;;;12.15;7.72;;;;;;;;;;5072349;28;20025;-69
2024/03/22 09:43:21;;;;;;;15.60;8.90;;;;;;;;;;5072781;28;20039;-70
2024/03/22 09:45:50;;;;;;;13.48;8.32;;;;;;;;;;5072428;28;20089;-70
2024/03/22 09:48:20;;;;;;;10.02;7.97;;;;;;;;;;5054123;28;20021;-70
2024/03/22 09:50:49;;;;;;;12.27;8.10;;;;;;;;;;5072223;28;20035;-68
2024/03/22 09:53:22;;;;;;;15.75;7.97;;;;;;;;;;5071244;28;20029;-68
2024/03/22 09:55:49;;;;;;;10.77;7.57;;;;;;;;;;5052765;28;20032;-70
2024/03/22 09:58:16;;;;;;;13.20;8.20;;;;;;;;;;5073499;28;20479;-69
2024/03/22 10:00:42;;;;;;;16.05;7.72;;;;;;;;;;5054393;28;20036;-70
2024/03/22 10:03:10;;;;;;;13.50;7.65;;;;;;;;;;5052783;28;20024;-68
2024/03/22 10:05:36;;;;;;;15.70;8.10;;;;;;;;;;5052703;28;20070;-70
2024/03/22 10:08:05;;;;;;;15.38;8.45;;;;;;;;;;5054353;28;20150;-69
2024/03/22 10:10:31;;;;;;;9.50;7.40;;;;;;;;;;5072484;28;20059;-69
2024/03/22 10:12:57;;;;;;;10.80;8.13;;;;;;;;;;5072980;28;20020;-71
2024/03/22 10:15:26;;;;;;;12.43;7.85;;;;;;;;;;5056594;28;20157;-70
2024/03/22 10:17:55;;;;;;;13.68;8.15;;;;;;;;;;5073427;28;20025;-71
2024/03/22 10:20:21;;;;;;;13.13;8.45;;;;;;;;;;5072787;28;20031;-70
2024/03/22 10:22:55;;;;;;;14.32;8.63;;;;;;;;;;5054623;28;20070;-70
2024/03/22 10:25:22;;;;;;;11.80;8.20;;;;;;;;;;5054880;28;20064;-69
2024/03/22 10:27:48;;;;;;;10.80;7.80;;;;;;;;;;5056057;28;20028;-71
2024/03/22 10:30:16;;;;;;;11.48;8.80;;;;;;;;;;5072997;28;20025;-70
2024/03/22 10:32:42;;;;;;;9.68;6.93;;;;;;;;;;5071856;28;20104;-69
2024/03/22 10:35:12;;;;;;;11.38;7.47;;;;;;;;;;5073478;28;20029;-72
2024/03/22 10:37:39;;;;;;;11.60;6.93;;;;;;;;;;5074694;28;20494;-71
2024/03/22 10:40:09;;;;;;;12.88;7.65;;;;;;;;;;5072226;28;20034;-71
2024/03/22 10:42:35;;;;;;;12.70;7.03;;;;;;;;;;5072053;28;20028;-71
2024/03/22 10:45:02;;;;;;;9.65;6.35;;;;;;;;;;5072119;28;20032;-70
2024/03/22 10:47:30;;;;;;;10.05;6.72;;;;;;;;;;5071951;28;20021;-70
2024/03/22 10:50:16;;;;;;;17.05;6.72;;;;;;;;;;5053986;28;20028;-70
2024/03/22 10:52:46;;;;;;;10.63;6.63;;;;;;;;;;5071242;28;20035;-71
2024/03/22 10:55:15;;;;;;;12.70;6.28;;;;;;;;;;5071635;28;20553;-70
2024/03/22 10:57:42;;;;;;;7.13;6.28;;;;;;;;;;5071466;28;20430;-71
2024/03/22 11:00:11;;;;;;;11.38;5.70;;;;;;;;;;5071642;28;20380;-73
2024/03/22 11:02:37;;;;;;;10.60;5.80;;;;;;;;;;5052950;28;20085;-72
2024/03/22 11:05:07;;;;;;;9.18;7.13;;;;;;;;;;5052929;28;20055;-69
2024/03/22 11:07:33;;;;;;;6.30;5.38;;;;;;;;;;5071212;28;20017;-72
2024/03/22 11:10:03;;;;;;;10.57;6.70;;;;;;;;;;5070806;28;20031;-71
2024/03/22 11:12:33;;;;;;;11.43;6.55;;;;;;;;;;5070392;28;20360;-71
2024/03/22 11:14:59;;;;;;;10.27;6.82;;;;;;;;;;5070839;28;20031;-71
2024/03/22 11:17:26;;;;;;;9.13;6.18;;;;;;;;;;5053577;28;20043;-70
2024/03/22 11:19:52;;;;;;;9.02;6.82;;;;;;;;;;5071911;28;20483;-72
2024/03/22 11:22:18;;;;;;;8.38;6.68;;;;;;;;;;5070282;28;20048;-70
2024/03/22 11:24:44;;;;;;;12.30;6.38;;;;;;;;;;5052309;28;20166;-70
2024/03/22 11:27:11;;;;;;;10.60;6.03;;;;;;;;;;5052809;28;20023;-70
2024/03/22 11:29:41;;;;;;;10.85;6.82;;;;;;;;;;5070212;28;20429;-71
2024/03/22 11:32:08;;;;;;;10.90;6.90;;;;;;;;;;5069521;28;20125;-70
2024/03/22 11:34:35;;;;;;;8.45;6.68;;;;;;;;;;5070238;28;20126;-72
2024/03/22 11:37:01;;;;;;;12.07;7.10;;;;;;;;;;5070570;28;20017;-70
2024/03/22 11:39:27;;;;;;;10.18;6.82;;;;;;;;;;5069860;28;20024;-70
2024/03/22 11:41:53;;;;;;;9.60;7.10;;;;;;;;;;5051819;28;20424;-71
2024/03/22 11:44:19;;;;;;;9.43;7.15;;;;;;;;;;5051682;28;20061;-71
2024/03/22 11:46:45;;;;;;;10.57;7.70;;;;;;;;;;5070098;28;20036;-71
2024/03/22 11:49:11;;;;;;;11.82;7.10;;;;;;;;;;5069872;28;20032;-71
2024/03/22 11:51:39;;;;;;;8.32;7.50;;;;;;;;;;5050098;28;20529;-72
2024/03/22 11:54:07;;;;;;;17.88;8.60;;;;;;;;;;5047876;28;20037;-71
2024/03/22 11:56:35;;;;;;;13.68;8.40;;;;;;;;;;5070136;28;20035;-70
2024/03/22 11:59:02;;;;;;;14.77;9.20;;;;;;;;;;5062621;28;20024;-69
2024/03/22 12:01:29;;;;;;;13.65;8.60;;;;;;;;;;5066226;28;20378;-69
2024/03/22 12:03:55;;;;;;;10.85;8.35;;;;;;;;;;5050493;28;20107;-72
2024/03/22 12:06:22;;;;;;;10.45;8.32;;;;;;;;;;5064834;28;20032;-70
2024/03/22 12:08:48;;;;;;;10.85;8.98;;;;;;;;;;5062464;28;20028;-69
2024/03/22 12:11:14;;;;;;;11.48;7.80;;;;;;;;;;5067933;28;20039;-72
2024/03/22 12:13:40;;;;;;;13.77;8.98;;;;;;;;;;5060289;28;20060;-70
2024/03/22 12:16:10;;;;;;;13.15;9.27;;;;;;;;;;5066211;28;20098;-70
2024/03/22 12:18:36;;;;;;;16.30;9.05;;;;;;;;;;5066898;28;20425;-71
2024/03/22 12:21:02;;;;;;;11.32;8.52;;;;;;;;;;5065885;28;20114;-71
2024/03/22 12:23:28;;;;;;;12.50;7.85;;;;;;;;;;5064470;28;20024;-70
2024/03/22 12:25:55;;;;;;;11.52;8.00;;;;;;;;;;5066554;28;20024;-70
2024/03/22 12:28:22;;;;;;;11.80;8.25;;;;;;;;;;5066134;28;20107;-71
2024/03/22 12:30:49;;;;;;;17.67;9.82;;;;;;;;;;5050761;28;20062;-72
2024/03/22 12:33:15;;;;;;;14.73;9.02;;;;;;;;;;5065588;28;20012;-71
2024/03/22 12:35:41;;;;;;;14.73;8.07;;;;;;;;;;5066474;28;20029;-69
2024/03/22 12:38:10;;;;;;;12.60;8.60;;;;;;;;;;5068173;28;20063;-70
2024/03/22 12:40:36;;;;;;;11.23;8.35;;;;;;;;;;5068963;28;20025;-71
2024/03/22 12:43:03;;;;;;;13.23;9.20;;;;;;;;;;5061368;28;20025;-71
2024/03/22 12:45:29;;;;;;;10.93;8.25;;;;;;;;;;5065599;28;20017;-70
2024/03/22 12:47:55;;;;;;;11.32;7.93;;;;;;;;;;5050693;28;20100;-72
2024/03/22 12:50:22;;;;;;;12.90;7.80;;;;;;;;;;5065622;28;20028;-70
2024/03/22 12:52:48;;;;;;;12.88;7.88;;;;;;;;;;5050704;28;20537;-71
2024/03/22 12:55:14;;;;;;;16.30;8.95;;;;;;;;;;5052724;28;20119;-71
2024/03/22 12:57:40;;;;;;;11.23;7.90;;;;;;;;;;5070263;28;20021;-71
2024/03/22 13:00:12;;;;;;;12.85;8.15;;;;;;;;;;5070425;28;20115;-71
2024/03/22 13:02:39;;;;;;;9.82;8.18;;;;;;;;;;5055313;28;20056;-72
2024/03/22 13:05:05;;;;;;;23.30;8.48;;;;;;;;;;5068952;28;20187;-70
2024/03/22 13:07:32;;;;;;;14.48;7.88;;;;;;;;;;5070781;28;20467;-70
2024/03/22 13:10:00;;;;;;;15.80;8.88;;;;;;;;;;5054524;28;20063;-71
2024/03/22 13:12:26;;;;;;;14.07;8.57;;;;;;;;;;5069390;28;20024;-69
2024/03/22 13:14:52;;;;;;;13.30;8.93;;;;;;;;;;5073628;28;20031;-71
2024/03/22 13:17:18;;;;;;;16.38;9.40;;;;;;;;;;5072128;28;20024;-71
2024/03/22 13:19:44;;;;;;;15.63;9.73;;;;;;;;;;5075744;28;20024;-70
2024/03/22 13:22:10;;;;;;;24.67;9.07;;;;;;;;;;5070972;28;20432;-69
2024/03/22 13:24:36;;;;;;;17.30;9.52;;;;;;;;;;5072972;28;20082;-68
2024/03/22 13:27:02;;;;;;;15.82;8.98;;;;;;;;;;5054874;28;20042;-69
2024/03/22 13:29:28;;;;;;;11.98;8.27;;;;;;;;;;5054356;28;20116;-68
2024/03/22 13:31:55;;;;;;;14.63;8.05;;;;;;;;;;5072239;28;20025;-69
2024/03/22 13:34:21;;;;;;;13.85;8.73;;;;;;;;;;5071802;28;20084;-70
2024/03/22 13:36:47;;;;;;;11.98;8.70;;;;;;;;;;5046477;28;20463;-69
2024/03/22 13:39:15;;;;;;;17.30;8.25;;;;;;;;;;5054211;28;20027;-70
2024/03/22 13:41:42;;;;;;;27.05;9.07;;;;;;;;;;5052325;28;20028;-70
2024/03/22 13:44:08;;;;;;;21.67;8.85;;;;;;;;;;5071068;28;20025;-70
2024/03/22 13:46:36;;;;;;;11.57;8.02;;;;;;;;;;5053818;28;20017;-70
2024/03/22 13:49:02;;;;;;;11.75;8.45;;;;;;;;;;5072701;28;20507;-69
2024/03/22 13:51:28;;;;;;;14.32;8.35;;;;;;;;;;5071423;28;20031;-70
2024/03/22 13:53:55;;;;;;;11.75;8.35;;;;;;;;;;5073372;28;20032;-72
2024/03/22 13:56:21;;;;;;;12.52;7.78;;;;;;;;;;5074151;28;20626;-70
2024/03/22 13:58:48;;;;;;;13.63;9.15;;;;;;;;;;5065075;28;20083;-70
2024/03/22 14:01:15;;;;;;;14.73;8.63;;;;;;;;;;5063628;28;20562;-71
2024/03/22 14:03:41;;;;;;;20.48;8.40;;;;;;;;;;5064299;28;20800;-73
2024/03/22 14:06:07;;;;;;;13.93;8.13;;;;;;;;;;5070329;28;20520;-71
2024/03/22 14:08:33;;;;;;;14.57;8.80;;;;;;;;;;5072097;28;20467;-69
2024/03/22 14:10:59;;;;;;;14.25;9.65;;;;;;;;;;5066635;28;20476;-72
2024/03/22 14:13:25;;;;;;;14.13;9.70;;;;;;;;;;5066447;28;20035;-70
2024/03/22 14:15:51;;;;;;;13.13;9.50;;;;;;;;;;5055491;28;20035;-71